Time;durP1;ratioP1;P1;durP2;ratioP2;P2;SDS_P1;SDS_P2;PMS_P1;PMS_P2;Temp;Humidity;BMP_temperature;BMP_pressure;BME280_temperature;BME280_humidity;BME280_pressure;Samples;Min_cycle;Max_cycle;Signal;HPM_P1;HPM_P2
2021/10/26 00:00:58;;;;;;;33.88;15.18;;;;;;;7.45;70.70;103148.36;1740931;80;21723;-78
2021/10/26 00:03:32;;;;;;;37.63;14.03;;;;;;;7.42;70.80;103156.15;1754243;81;21359;-77
2021/10/26 00:06:05;;;;;;;30.92;14.45;;;;;;;7.41;70.90;103158.03;1780736;80;21489;-77
2021/10/26 00:08:37;;;;;;;34.27;14.63;;;;;;;7.43;71.07;103151.83;1770295;80;21333;-79
2021/10/26 00:11:10;;;;;;;;;;;;;;;7.47;71.13;103152.33;1770761;80;21206;-77
2021/10/26 00:13:47;;;;;;;34.33;15.13;;;;;;;7.49;71.09;103151.11;1764688;80;20249;-77
2021/10/26 00:16:19;;;;;;;30.25;15.45;;;;;;;7.48;71.03;103150.75;1760926;79;21396;-76
2021/10/26 00:18:52;;;;;;;32.08;14.18;;;;;;;7.50;71.04;103147.80;1741171;81;21360;-77
2021/10/26 00:21:24;;;;;;;33.92;15.03;;;;;;;7.45;70.96;103140.06;1735574;81;21182;-77
2021/10/26 00:23:57;;;;;;;28.52;13.62;;;;;;;7.40;71.13;103143.88;1735956;82;21238;-77
2021/10/26 00:26:29;;;;;;;36.25;14.68;;;;;;;7.38;71.32;103148.73;1739279;82;21221;-79
2021/10/26 00:29:02;;;;;;;31.23;15.08;;;;;;;7.39;71.36;103133.88;1736372;81;21384;-75
2021/10/26 00:31:35;;;;;;;35.88;15.50;;;;;;;7.40;71.47;103136.97;1742720;81;21400;-75
2021/10/26 00:34:08;;;;;;;39.65;16.95;;;;;;;7.46;71.41;103132.62;1731549;81;21408;-76
2021/10/26 00:36:40;;;;;;;37.83;15.03;;;;;;;7.53;71.27;103141.40;1712812;83;21871;-77
2021/10/26 00:39:13;;;;;;;;;;;;;;;7.55;71.05;103132.42;1712065;81;21620;-77
2021/10/26 00:41:47;;;;;;;37.17;16.02;;;;;;;7.58;71.06;103129.79;1711178;81;20226;-79
2021/10/26 00:44:20;;;;;;;30.05;14.47;;;;;;;7.57;71.09;103126.19;1725803;81;21227;-82
2021/10/26 00:46:53;;;;;;;32.42;13.75;;;;;;;7.57;71.10;103127.56;1725795;81;22084;-76
2021/10/26 00:49:25;;;;;;;34.48;15.40;;;;;;;7.59;71.16;103131.00;1718593;83;21812;-75
2021/10/26 00:51:58;;;;;;;35.85;15.30;;;;;;;7.62;71.32;103133.92;1742131;78;21432;-79
2021/10/26 00:54:32;;;;;;;39.73;16.42;;;;;;;7.66;71.35;103125.63;1763475;80;21321;-77
2021/10/26 00:57:07;;;;;;;41.10;16.25;;;;;;;7.69;71.20;103133.03;1762222;81;21831;-79
2021/10/26 00:59:40;;;;;;;36.95;16.23;;;;;;;7.70;71.19;103127.83;1762448;81;21725;-77
2021/10/26 01:02:12;;;;;;;34.67;16.40;;;;;;;7.73;71.01;103121.08;1762247;80;21230;-77
2021/10/26 01:04:48;;;;;;;40.73;16.32;;;;;;;7.68;71.13;103132.69;1762218;80;21219;-78
2021/10/26 01:07:24;;;;;;;41.80;17.12;;;;;;;7.64;71.23;103128.56;1762130;80;21191;-77
2021/10/26 01:09:56;;;;;;;39.85;17.45;;;;;;;7.61;71.28;103130.32;1768350;79;21326;-78
2021/10/26 01:12:31;;;;;;;36.88;16.20;;;;;;;7.62;71.39;103130.66;1762535;80;21198;-78
2021/10/26 01:15:06;;;;;;;34.67;16.00;;;;;;;7.64;71.42;103132.70;1761761;80;21216;-79
2021/10/26 01:17:39;;;;;;;37.85;17.50;;;;;;;7.72;71.33;103123.52;1761871;81;21269;-80
2021/10/26 01:20:12;;;;;;;34.27;15.45;;;;;;;7.81;71.22;103134.84;1762236;81;21328;-81
2021/10/26 01:22:44;;;;;;;49.67;19.65;;;;;;;7.86;70.87;103131.89;1762157;80;22366;-76
2021/10/26 01:25:18;;;;;;;39.23;19.07;;;;;;;7.85;70.54;103132.91;1761714;81;21203;-77
2021/10/26 01:27:54;;;;;;;38.50;18.05;;;;;;;7.77;70.67;103130.20;1762109;81;22582;-75
2021/10/26 01:30:33;;;;;;;33.55;15.30;;;;;;;7.75;70.67;103130.05;1762147;80;21188;-80
2021/10/26 01:33:09;;;;;;;27.27;13.78;;;;;;;7.73;70.54;103126.07;1762290;80;21366;-76
2021/10/26 01:35:51;;;;;;;27.55;15.45;;;;;;;7.73;70.46;103120.54;1762242;80;21293;-75
2021/10/26 01:38:27;;;;;;;27.22;14.75;;;;;;;7.75;70.48;103117.09;1762082;80;21393;-77
2021/10/26 01:41:00;;;;;;;42.70;15.40;;;;;;;7.82;70.33;103119.97;1762110;80;21775;-80
2021/10/26 01:43:34;;;;;;;28.90;15.13;;;;;;;7.89;69.80;103117.68;1761982;80;21823;-77
2021/10/26 01:46:08;;;;;;;34.15;17.25;;;;;;;7.95;69.57;103116.11;1762114;80;21831;-76
2021/10/26 01:48:43;;;;;;;31.37;16.87;;;;;;;7.98;69.10;103112.45;1762258;81;21189;-75
2021/10/26 01:51:16;;;;;;;34.38;16.52;;;;;;;7.94;68.92;103109.70;1762439;81;21732;-76
2021/10/26 01:53:48;;;;;;;34.03;17.80;;;;;;;7.93;68.89;103106.60;1753252;80;21901;-75
2021/10/26 01:56:21;;;;;;;48.25;16.82;;;;;;;7.89;68.82;103108.55;1751998;80;21367;-75
2021/10/26 01:58:58;;;;;;;33.88;14.45;;;;;;;7.86;68.89;103104.23;1747659;82;21423;-76
2021/10/26 02:01:33;;;;;;;36.93;14.70;;;;;;;7.89;68.87;103106.62;1706107;82;21825;-74
2021/10/26 02:04:06;;;;;;;31.42;14.70;;;;;;;7.94;69.01;103108.31;1709181;82;21194;-75
2021/10/26 02:06:39;;;;;;;42.48;16.25;;;;;;;8.00;69.00;103102.05;1708083;82;21216;-79
2021/10/26 02:09:12;;;;;;;31.25;15.83;;;;;;;8.05;68.90;103109.28;1745781;81;21336;-77
2021/10/26 02:11:45;;;;;;;31.57;15.75;;;;;;;8.07;68.85;103108.56;1743942;82;21363;-77
2021/10/26 02:14:18;;;;;;;37.20;16.50;;;;;;;8.06;68.75;103106.84;1744106;81;21320;-77
2021/10/26 02:16:50;;;;;;;33.78;15.78;;;;;;;8.04;68.68;103107.56;1744134;81;21362;-79
2021/10/26 02:19:25;;;;;;;26.40;15.15;;;;;;;7.97;68.62;103113.47;1744209;80;21375;-76
2021/10/26 02:21:59;;;;;;;31.02;16.02;;;;;;;7.89;68.77;103108.00;1743980;81;21333;-77
2021/10/26 02:24:34;;;;;;;22.42;13.90;;;;;;;7.82;69.07;103109.78;1717167;82;21221;-75
2021/10/26 02:27:07;;;;;;;35.73;14.65;;;;;;;7.77;69.46;103111.39;1743787;82;21298;-77
2021/10/26 02:29:40;;;;;;;31.02;14.73;;;;;;;7.74;69.62;103106.20;1743648;80;21318;-80
2021/10/26 02:32:12;;;;;;;26.62;13.78;;;;;;;7.74;69.79;103108.47;1743688;81;21431;-79
2021/10/26 02:34:51;;;;;;;29.87;14.68;;;;;;;7.73;69.79;103110.02;1744134;77;21324;-79
2021/10/26 02:37:23;;;;;;;33.08;13.85;;;;;;;7.67;69.84;103107.48;1728063;83;21361;-77
2021/10/26 02:39:57;;;;;;;29.63;14.07;;;;;;;7.59;69.82;103108.88;1728080;82;21155;-76
2021/10/26 02:42:30;;;;;;;;;;;;;;;7.48;69.92;103112.05;1730711;83;21795;-76
2021/10/26 02:45:04;;;;;;;30.75;13.48;;;;;;;7.40;70.14;103107.08;1728174;83;20254;-78
2021/10/26 02:47:46;;;;;;;27.95;13.13;;;;;;;7.30;70.27;103103.70;1727956;83;21377;-77
2021/10/26 02:50:20;;;;;;;28.17;13.93;;;;;;;7.24;70.67;103100.27;1727876;83;21878;-78
2021/10/26 02:52:53;;;;;;;34.55;13.90;;;;;;;7.23;70.84;103108.73;1727890;83;21921;-77
2021/10/26 02:55:26;;;;;;;32.03;14.80;;;;;;;7.21;71.04;103110.82;1728126;83;21360;-78
2021/10/26 02:57:59;;;;;;;39.63;15.40;;;;;;;7.18;71.16;103109.78;1728084;83;21198;-78
2021/10/26 03:00:32;;;;;;;33.75;16.15;;;;;;;7.14;71.18;103113.96;1727775;83;21190;-78
2021/10/26 03:03:06;;;;;;;36.38;15.30;;;;;;;7.09;71.25;103109.48;1727659;82;21175;-78
2021/10/26 03:05:40;;;;;;;29.27;13.32;;;;;;;7.02;71.37;103100.20;1708070;83;21326;-78
2021/10/26 03:08:13;;;;;;;30.37;13.93;;;;;;;6.97;71.61;103106.23;1728408;83;21325;-77
2021/10/26 03:10:46;;;;;;;39.75;16.05;;;;;;;6.98;71.95;103105.22;1732227;83;21306;-78
2021/10/26 03:13:21;;;;;;;45.50;16.95;;;;;;;6.98;72.09;103105.22;1730432;83;21226;-76
2021/10/26 03:15:57;;;;;;;46.53;17.02;;;;;;;6.98;72.25;103098.81;1728089;82;21751;-77
2021/10/26 03:18:31;;;;;;;49.35;20.30;;;;;;;7.00;72.32;103110.53;1727967;82;21787;-77
2021/10/26 03:21:04;;;;;;;38.98;17.65;;;;;;;6.99;72.44;103103.30;1727951;83;21826;-76
2021/10/26 03:23:38;;;;;;;41.20;15.98;;;;;;;6.96;72.56;103095.38;1727999;83;21866;-79
2021/10/26 03:26:15;;;;;;;29.45;13.62;;;;;;;6.96;72.71;103100.91;1728176;81;21167;-79
2021/10/26 03:28:50;;;;;;;40.17;14.45;;;;;;;6.98;72.89;103102.95;1728008;81;21325;-80
2021/10/26 03:31:26;;;;;;;41.50;17.37;;;;;;;7.04;72.99;103098.11;1727870;83;21199;-81
2021/10/26 03:34:00;;;;;;;33.38;13.98;;;;;;;7.04;72.92;103101.74;1725032;82;21222;-79
2021/10/26 03:36:34;;;;;;;33.70;16.00;;;;;;;7.04;73.01;103098.11;1727890;82;21388;-79
2021/10/26 03:39:08;;;;;;;39.20;16.87;;;;;;;7.07;73.09;103104.13;1730542;81;21187;-81
2021/10/26 03:41:40;;;;;;;31.05;13.80;;;;;;;7.09;73.10;103095.67;1728140;83;21713;-80
2021/10/26 03:44:16;;;;;;;36.90;14.70;;;;;;;7.15;73.20;103090.81;1728454;83;21292;-82
2021/10/26 03:46:55;;;;;;;36.68;15.35;;;;;;;7.15;73.17;103094.96;1728135;81;21333;-80
2021/10/26 03:49:29;;;;;;;32.90;14.25;;;;;;;7.17;73.42;103088.73;1728160;83;21385;-79
2021/10/26 03:52:05;;;;;;;23.45;12.25;;;;;;;7.24;73.40;103090.06;1728103;81;21222;-80
2021/10/26 03:54:41;;;;;;;28.80;13.85;;;;;;;7.28;73.33;103087.83;1728293;81;21332;-81
2021/10/26 03:57:13;;;;;;;32.53;14.75;;;;;;;7.33;73.23;103094.52;1728330;82;21242;-78
2021/10/26 03:59:46;;;;;;;29.27;13.25;;;;;;;7.38;73.20;103094.52;1728283;83;21171;-78
2021/10/26 04:02:27;;;;;;;36.38;12.03;;;;;;;7.41;73.00;103095.02;1728462;83;21321;-79
2021/10/26 04:05:10;;;;;;;22.30;11.15;;;;;;;7.44;72.62;103095.51;1725992;83;21166;-83
2021/10/26 04:07:45;;;;;;;26.93;12.30;;;;;;;7.49;72.41;103095.84;1706164;83;21373;-78
2021/10/26 04:10:19;;;;;;;23.95;11.63;;;;;;;7.56;72.19;103087.16;1708758;83;21822;-84
2021/10/26 04:12:50;;;;;;;26.37;12.40;;;;;;;7.58;71.95;103085.56;1728242;83;21299;-80
2021/10/26 04:15:24;;;;;;;40.90;13.30;;;;;;;7.60;71.57;103085.72;1728330;83;21328;-80
2021/10/26 04:17:57;;;;;;;29.92;14.40;;;;;;;7.63;71.16;103083.99;1728377;83;21195;-81
2021/10/26 04:20:31;;;;;;;;;;;;;;;7.61;70.86;103078.30;1731024;83;21321;-78
2021/10/26 04:23:04;;;;;;;33.15;11.38;;;;;;;7.57;70.70;103082.46;1728571;83;20258;-79
2021/10/26 04:25:37;;;;;;;22.40;11.35;;;;;;;7.50;70.57;103075.44;1728405;81;21345;-79
2021/10/26 04:28:10;;;;;;;27.80;11.80;;;;;;;7.48;70.52;103084.41;1728304;83;21858;-82
2021/10/26 04:30:43;;;;;;;22.00;10.97;;;;;;;7.56;70.55;103076.09;1728469;83;21328;-76
2021/10/26 04:33:20;;;;;;;34.90;13.13;;;;;;;7.56;70.55;103076.09;1725657;81;22096;-82
2021/10/26 04:35:56;;;;;;;29.45;11.83;;;;;;;7.63;70.33;103075.70;1728707;83;21194;-79
2021/10/26 04:38:28;;;;;;;;;;;;;;;7.69;70.14;103081.88;1734970;81;21328;-79
2021/10/26 04:41:02;;;;;;;31.20;14.00;;;;;;;7.69;70.02;103086.03;1645628;86;20277;-77
2021/10/26 04:43:36;;;;;;;27.20;12.65;;;;;;;7.68;70.15;103082.05;1646267;86;21906;-77
2021/10/26 04:46:17;;;;;;;33.92;13.10;;;;;;;7.65;70.08;103076.36;1646023;87;21431;-81
2021/10/26 04:48:54;;;;;;;28.73;12.10;;;;;;;7.64;70.23;103078.80;1645832;86;21349;-84
2021/10/26 04:51:29;;;;;;;40.15;14.05;;;;;;;7.67;70.44;103074.81;1645573;86;21440;-80
2021/10/26 04:54:02;;;;;;;122.37;61.70;;;;;;;7.71;70.49;103083.92;1622505;87;21997;-78
2021/10/26 04:56:36;;;;;;;51.15;23.02;;;;;;;7.73;70.66;103087.36;1614480;88;21356;-77
2021/10/26 04:59:26;;;;;;;49.42;19.60;;;;;;;7.76;70.76;103084.75;1673968;83;21326;-77
2021/10/26 05:02:02;;;;;;;46.58;16.95;;;;;;;7.76;70.78;103089.77;1731535;82;21359;-78
2021/10/26 05:04:39;;;;;;;34.23;16.45;;;;;;;7.75;70.82;103088.56;1768624;78;21332;-76
2021/10/26 05:07:12;;;;;;;42.93;17.33;;;;;;;7.77;70.86;103085.96;1768934;81;21327;-78
2021/10/26 05:09:45;;;;;;;38.92;17.00;;;;;;;7.80;70.85;103091.14;1769045;81;21335;-75
2021/10/26 05:12:19;;;;;;;50.88;15.70;;;;;;;7.81;70.68;103088.71;1769096;81;21233;-74
2021/10/26 05:14:53;;;;;;;49.38;16.45;;;;;;;7.84;70.61;103094.40;1768994;81;21154;-73
2021/10/26 05:17:34;;;;;;;35.30;15.30;;;;;;;7.90;70.75;103084.83;1764268;81;21320;-75
2021/10/26 05:20:27;;;;;;;35.13;16.15;;;;;;;8.00;70.87;103081.81;1769298;81;21813;-75
2021/10/26 05:23:10;;;;;;;28.92;9.43;;;;;;;8.10;70.80;103086.58;1738895;81;21244;-73
2021/10/26 05:25:57;;;;;;;28.92;13.05;;;;;;;8.17;70.44;103084.28;1765597;81;21214;-74
2021/10/26 05:28:38;;;;;;;23.60;8.38;;;;;;;8.26;70.12;103083.72;1769380;81;21260;-73
2021/10/26 05:31:10;;;;;;;14.47;7.35;;;;;;;8.34;69.90;103074.79;1769385;81;21726;-75
2021/10/26 05:33:44;;;;;;;12.58;5.30;;;;;;;8.42;69.87;103075.25;1769403;81;21185;-83
2021/10/26 05:36:19;;;;;;;26.42;9.35;;;;;;;8.53;69.68;103078.44;1769284;81;21376;-83
2021/10/26 05:38:58;;;;;;;23.90;11.73;;;;;;;8.67;69.78;103073.44;1769359;81;21289;-85
2021/10/26 05:41:36;;;;;;;14.43;6.45;;;;;;;8.78;69.78;103079.90;1741932;81;21233;-84
2021/10/26 05:44:09;;;;;;;39.88;12.50;;;;;;;8.87;69.41;103080.13;1769250;80;21186;-77
2021/10/26 05:46:43;;;;;;;11.30;5.08;;;;;;;9.03;69.52;103083.23;1769342;81;22449;-77
2021/10/26 05:49:20;;;;;;;18.25;5.53;;;;;;;9.13;68.83;103076.34;1769914;81;21383;-83
2021/10/26 05:51:52;;;;;;;15.38;5.05;;;;;;;9.33;68.24;103078.87;1769421;81;21328;-80
2021/10/26 05:54:27;;;;;;;9.60;4.53;;;;;;;9.51;67.62;103082.59;1769848;81;21802;-77
2021/10/26 05:57:12;;;;;;;13.48;4.87;;;;;;;9.67;66.95;103081.83;1769095;81;21424;-77
2021/10/26 05:59:48;;;;;;;9.10;4.50;;;;;;;9.83;66.35;103084.37;1769762;81;21233;-80
2021/10/26 06:02:22;;;;;;;12.53;4.95;;;;;;;9.98;65.21;103079.61;1769715;81;21229;-82
2021/10/26 06:04:56;;;;;;;4.67;3.05;;;;;;;10.17;65.04;103090.11;1767606;80;21711;-83
2021/10/26 06:07:28;;;;;;;;;;;;;;;10.37;64.76;103108.33;1774134;81;21355;-80
2021/10/26 06:10:01;;;;;;;12.37;4.45;;;;;;;10.56;63.43;103079.34;1771307;81;20297;-81
2021/10/26 06:12:33;;;;;;;10.60;4.40;;;;;;;10.70;63.04;103081.14;1771415;81;21178;-82
2021/10/26 06:15:09;;;;;;;10.45;4.65;;;;;;;10.78;62.38;103081.02;1741396;81;21320;-81
2021/10/26 06:17:42;;;;;;;9.88;3.70;;;;;;;10.84;61.16;103089.05;1741903;81;21316;-83
2021/10/26 06:20:16;;;;;;;13.72;4.83;;;;;;;10.84;61.05;103080.20;1771521;81;21170;-80
2021/10/26 06:22:48;;;;;;;11.12;4.58;;;;;;;10.89;61.12;103082.36;1771407;81;21384;-80
2021/10/26 06:25:22;;;;;;;11.95;4.70;;;;;;;10.96;60.93;103081.31;1771772;79;21379;-83
2021/10/26 06:27:57;;;;;;;8.88;4.10;;;;;;;10.99;60.86;103080.92;1753136;81;21830;-81
2021/10/26 06:30:44;;;;;;;15.18;5.50;;;;;;;11.03;60.51;103080.86;1742076;81;21415;-84
2021/10/26 06:33:19;;;;;;;9.83;5.12;;;;;;;11.06;60.21;103084.59;1774443;81;21308;-78
2021/10/26 06:35:57;;;;;;;19.23;5.28;;;;;;;11.08;60.21;103089.41;1776384;79;21177;-80
2021/10/26 06:38:31;;;;;;;10.50;4.60;;;;;;;11.07;60.04;103077.13;1771885;81;21856;-79
2021/10/26 06:41:05;;;;;;;9.18;4.25;;;;;;;11.11;59.81;103083.45;1771474;81;21384;-80
2021/10/26 06:43:55;;;;;;;12.65;4.87;;;;;;;11.13;59.80;103095.22;1771087;81;21312;-80
2021/10/26 06:46:49;;;;;;;9.08;4.42;;;;;;;11.13;59.73;103085.48;1771010;80;21340;-80
2021/10/26 06:49:39;;;;;;;11.10;4.22;;;;;;;11.12;59.81;103094.06;1733372;81;21320;-79
2021/10/26 06:52:36;;;;;;;9.20;4.00;;;;;;;11.10;59.93;103090.09;1748947;81;21181;-81
2021/10/26 06:55:21;;;;;;;13.28;4.60;;;;;;;11.10;60.18;103085.05;1746916;81;21843;-80
2021/10/26 06:58:20;;;;;;;8.08;4.17;;;;;;;11.10;60.22;103080.87;1676513;84;21756;-80
2021/10/26 07:02:02;;;;;;;9.85;5.00;;;;;;;11.18;60.58;103080.17;1897699;74;22709;-74
2021/10/26 07:04:39;;;;;;;8.20;4.12;;;;;;;11.17;60.58;103090.98;1856766;76;21329;-81
2021/10/26 07:07:17;;;;;;;10.25;7.45;;;;;;;11.19;60.61;103092.17;1848451;76;21364;-73
2021/10/26 07:09:55;;;;;;;25.17;7.10;;;;;;;11.17;60.69;103086.80;1852471;76;21210;-75
2021/10/26 07:12:31;;;;;;;11.85;5.70;;;;;;;11.13;60.83;103073.53;1840096;78;21301;-75
2021/10/26 07:15:07;;;;;;;14.00;5.58;;;;;;;11.14;60.75;103083.58;1843744;76;21847;-84
2021/10/26 07:17:42;;;;;;;8.80;4.72;;;;;;;11.16;60.69;103087.87;1822279;76;21691;-78
2021/10/26 07:20:17;;;;;;;8.00;4.70;;;;;;;11.13;60.83;103075.75;1851070;77;21350;-80
2021/10/26 07:23:08;;;;;;;10.72;4.78;;;;;;;11.12;61.04;103075.98;1851034;77;21304;-78
2021/10/26 07:25:58;;;;;;;14.83;5.20;;;;;;;11.11;61.18;103082.06;1851196;77;21335;-81
2021/10/26 07:28:31;;;;;;;11.03;4.22;;;;;;;11.15;61.32;103075.04;1851284;77;21304;-80
2021/10/26 07:31:05;;;;;;;12.88;4.75;;;;;;;11.23;61.25;103075.38;1851325;77;21295;-80
2021/10/26 07:33:40;;;;;;;9.98;4.40;;;;;;;11.28;61.18;103070.06;1840716;77;21371;-80
2021/10/26 07:36:13;;;;;;;9.75;4.80;;;;;;;11.35;60.93;103078.77;1837449;77;21171;-79
2021/10/26 07:38:46;;;;;;;13.45;4.20;;;;;;;11.39;60.74;103070.34;1838257;77;21305;-78
2021/10/26 07:41:19;;;;;;;8.90;4.37;;;;;;;11.41;60.74;103086.81;1841051;77;21312;-79
2021/10/26 07:44:10;;;;;;;7.30;4.22;;;;;;;11.44;60.36;103072.50;1733148;82;21869;-78
2021/10/26 07:46:54;;;;;;;10.00;4.53;;;;;;;11.47;60.03;103086.84;1683533;85;21265;-81
2021/10/26 07:49:32;;;;;;;13.88;4.58;;;;;;;11.48;59.95;103078.82;1682832;85;21379;-80
2021/10/26 07:52:07;;;;;;;7.20;4.05;;;;;;;11.50;60.15;103078.63;1686818;85;21731;-83
2021/10/26 07:54:49;;;;;;;12.53;4.62;;;;;;;11.58;60.11;103075.65;1683418;84;21193;-78
2021/10/26 07:57:20;;;;;;;12.07;5.10;;;;;;;11.61;60.20;103074.73;1688805;83;21223;-79
2021/10/26 07:59:55;;;;;;;13.25;4.65;;;;;;;11.62;60.08;103082.01;1681525;84;21230;-83
2021/10/26 08:02:27;;;;;;;11.12;4.72;;;;;;;11.62;60.21;103080.61;1729555;80;21320;-79
2021/10/26 08:05:20;;;;;;;13.38;4.28;;;;;;;11.64;60.40;103091.55;1692029;80;21237;-80
2021/10/26 08:07:55;;;;;;;6.90;4.58;;;;;;;11.63;60.55;103075.92;1835411;77;21173;-79
2021/10/26 08:10:32;;;;;;;13.18;4.65;;;;;;;11.64;60.72;103072.06;1834969;77;21834;-82
2021/10/26 08:13:06;;;;;;;7.80;4.67;;;;;;;11.68;60.52;103078.39;1836426;78;21296;-79
2021/10/26 08:15:39;;;;;;;9.28;3.85;;;;;;;11.71;60.37;103076.59;1836696;78;21389;-79
2021/10/26 08:18:12;;;;;;;9.85;5.03;;;;;;;11.77;59.90;103077.67;1841392;76;21420;-78
2021/10/26 08:20:52;;;;;;;7.83;3.90;;;;;;;11.83;59.55;103083.27;1827214;78;21209;-79
2021/10/26 08:23:22;;;;;;;13.20;4.10;;;;;;;11.88;58.43;103082.11;1829072;78;21745;-78
2021/10/26 08:25:59;;;;;;;11.10;3.70;;;;;;;11.90;57.62;103079.97;1836536;77;21292;-83
2021/10/26 08:28:31;;;;;;;7.17;4.30;;;;;;;11.95;56.93;103080.19;1833867;77;21198;-79
2021/10/26 08:37:04;;;;;;;12.10;3.72;;;;;;;12.09;55.04;103078.27;1831455;77;21170;-77
2021/10/26 08:39:58;;;;;;;15.68;9.15;;;;;;;12.13;54.98;103074.00;1824155;78;21394;-79
2021/10/26 08:42:31;;;;;;;;;;;;;;;12.18;54.11;103084.81;1834804;78;21147;-77
2021/10/26 08:45:06;;;;;;;6.97;3.67;;;;;;;12.14;53.97;103080.77;1835040;76;20256;-87
2021/10/26 08:47:45;;;;;;;10.20;3.90;;;;;;;12.13;54.29;103079.57;1835470;76;21316;-81
2021/10/26 08:50:20;;;;;;;7.83;3.33;;;;;;;12.17;54.20;103081.71;1827751;78;21838;-75
2021/10/26 08:52:53;;;;;;;5.65;3.60;;;;;;;12.16;53.27;103080.00;1831050;78;21312;-78
2021/10/26 08:55:39;;;;;;;6.70;3.72;;;;;;;12.13;53.68;103069.83;1830691;78;21842;-79
2021/10/26 08:58:30;;;;;;;8.93;4.10;;;;;;;12.16;53.67;103068.86;1832368;78;21142;-79
2021/10/26 09:01:03;;;;;;;7.35;4.10;;;;;;;12.23;53.21;103071.11;1831955;78;21316;-91
2021/10/26 09:03:39;;;;;;;5.67;3.70;;;;;;;12.24;52.82;103071.43;1835283;76;21250;-84
2021/10/26 09:06:15;;;;;;;6.72;4.10;;;;;;;12.20;52.83;103063.20;1832192;78;21202;-81
2021/10/26 09:08:54;;;;;;;9.40;4.42;;;;;;;12.18;53.00;103068.10;1806272;78;21293;-80
2021/10/26 09:11:43;;;;;;;10.55;4.55;;;;;;;12.21;53.09;103061.25;1834521;76;21178;-77
2021/10/26 09:17:32;;;;;;;9.50;4.60;;;;;;;12.31;52.42;103055.61;1806632;77;21827;-83
2021/10/26 09:20:28;;;;;;;13.50;3.02;;;;;;;12.36;51.82;103054.95;1797635;77;21230;-77
2021/10/26 09:23:04;;;;;;;9.15;3.62;;;;;;;12.29;51.96;103054.10;1794017;79;21178;-91
2021/10/26 09:25:40;;;;;;;8.38;3.72;;;;;;;12.24;52.54;103054.72;1794917;79;21241;-77
2021/10/26 09:28:17;;;;;;;6.12;3.30;;;;;;;12.23;52.20;103046.60;1794921;79;21302;-87
2021/10/26 09:31:10;;;;;;;7.87;4.17;;;;;;;12.19;52.34;103043.91;1793409;79;21329;-76
2021/10/26 09:33:44;;;;;;;10.05;3.62;;;;;;;12.16;52.39;103046.58;1754458;81;21217;-76
2021/10/26 09:36:34;;;;;;;13.00;4.25;;;;;;;12.11;52.78;103045.52;1702835;83;21802;-79
2021/10/26 09:39:14;;;;;;;4.90;3.20;;;;;;;12.10;53.20;103036.30;1693577;83;22176;-77
2021/10/26 09:42:01;;;;;;;6.30;3.77;;;;;;;12.13;53.43;103041.45;1709656;83;21323;-80
2021/10/26 09:44:37;;;;;;;5.70;2.87;;;;;;;12.16;53.46;103032.66;1713635;83;21416;-77
2021/10/26 09:47:24;;;;;;;8.33;3.02;;;;;;;12.15;53.13;103023.98;1727410;81;21209;-76
2021/10/26 09:50:08;;;;;;;5.17;2.80;;;;;;;12.08;52.75;103013.37;1731005;82;21314;-74
2021/10/26 09:52:47;;;;;;;10.10;3.67;;;;;;;12.02;53.08;103019.80;1733782;83;21301;-77
2021/10/26 09:55:28;;;;;;;12.43;4.15;;;;;;;11.99;53.45;103025.78;1780416;80;21357;-79
2021/10/26 09:58:25;;;;;;;8.75;3.10;;;;;;;12.00;53.34;103034.48;1796319;80;21313;-78
2021/10/26 10:01:13;;;;;;;6.75;3.17;;;;;;;11.96;53.06;103024.83;1764550;80;21305;-77
2021/10/26 10:04:09;;;;;;;5.53;2.77;;;;;;;11.90;53.34;103014.53;1837981;77;21317;-76
2021/10/26 10:06:52;;;;;;;5.20;3.10;;;;;;;11.91;53.14;103013.46;1838107;78;21316;-85
2021/10/26 10:09:25;;;;;;;10.30;3.17;;;;;;;11.93;53.20;103000.73;1834824;78;21150;-89
2021/10/26 10:12:08;;;;;;;10.38;3.47;;;;;;;11.95;53.07;103016.16;1736993;81;21873;-91
2021/10/26 10:14:52;;;;;;;8.73;3.62;;;;;;;11.93;53.41;102997.39;1747273;82;21194;-90
2021/10/26 10:17:24;;;;;;;10.43;3.92;;;;;;;11.91;53.79;103007.02;1737019;82;21874;-89
2021/10/26 10:20:04;;;;;;;6.42;3.52;;;;;;;11.92;54.07;103005.98;1746029;82;21383;-92
2021/10/26 10:22:38;;;;;;;8.98;2.92;;;;;;;11.86;53.62;102999.31;1715573;82;21328;-87
2021/10/26 10:25:12;;;;;;;6.95;3.10;;;;;;;11.81;53.77;103002.42;1739466;82;21201;-91
2021/10/26 10:27:48;;;;;;;7.40;3.08;;;;;;;11.78;53.72;102988.91;1740047;82;21889;-88
2021/10/26 10:30:21;;;;;;;10.18;3.35;;;;;;;11.78;53.83;102985.61;1728718;78;21314;-90
2021/10/26 10:32:56;;;;;;;5.97;3.42;;;;;;;11.81;53.61;102986.56;1829858;78;21332;-87
2021/10/26 10:35:29;;;;;;;8.45;3.90;;;;;;;11.82;53.42;102991.61;1832927;78;21174;-78
2021/10/26 10:38:04;;;;;;;4.70;2.87;;;;;;;11.76;53.69;102977.15;1832890;78;21819;-85
2021/10/26 10:40:57;;;;;;;7.22;3.40;;;;;;;11.81;53.67;102984.33;1813318;78;21336;-81
2021/10/26 10:43:39;;;;;;;9.50;3.83;;;;;;;11.76;53.12;102972.45;1830597;78;21384;-84
2021/10/26 10:46:41;;;;;;;7.03;3.33;;;;;;;11.70;53.52;102965.47;1831352;78;21290;-90
2021/10/26 10:49:27;;;;;;;6.35;2.95;;;;;;;11.69;53.76;102979.06;1826972;78;21304;-87
2021/10/26 10:52:10;;;;;;;9.35;4.05;;;;;;;11.68;53.79;102972.63;1803598;78;21185;-76
2021/10/26 10:54:57;;;;;;;7.28;3.33;;;;;;;11.67;53.83;102972.31;1801138;79;21352;-74
2021/10/26 10:57:38;;;;;;;15.03;4.00;;;;;;;11.67;53.76;102970.92;1806094;79;21344;-73
2021/10/26 11:00:34;;;;;;;6.60;3.98;;;;;;;11.63;53.89;102957.66;1802588;79;21328;-79
2021/10/26 11:03:11;;;;;;;6.78;3.47;;;;;;;11.62;54.00;102963.73;1806086;78;21300;-74
2021/10/26 11:05:45;;;;;;;5.50;3.08;;;;;;;11.64;53.82;102963.02;1774155;79;21201;-77
2021/10/26 11:08:21;;;;;;;7.58;4.80;;;;;;;11.64;53.84;102947.70;1780169;79;21281;-86
2021/10/26 11:10:58;;;;;;;7.67;3.75;;;;;;;11.64;54.04;102951.02;1800999;79;21295;-83
2021/10/26 11:13:35;;;;;;;4.97;3.10;;;;;;;11.62;54.28;102942.87;1805026;79;21221;-88
2021/10/26 11:16:09;;;;;;;7.25;3.35;;;;;;;11.63;54.49;102954.31;1803422;79;21170;-86
2021/10/26 11:18:51;;;;;;;6.83;4.12;;;;;;;11.61;54.41;102936.98;1772670;79;21355;-79
2021/10/26 11:21:29;;;;;;;5.72;3.20;;;;;;;11.61;54.28;102938.37;1800143;79;21170;-79
2021/10/26 11:24:08;;;;;;;9.78;3.77;;;;;;;11.62;54.46;102937.30;1806934;79;21313;-81
2021/10/26 11:26:47;;;;;;;4.70;3.15;;;;;;;11.65;54.65;102927.67;1806431;79;21309;-87
2021/10/26 11:29:30;;;;;;;7.72;3.67;;;;;;;11.72;55.01;102924.36;1806219;78;21826;-82
2021/10/26 11:32:02;;;;;;;4.85;3.08;;;;;;;11.80;54.67;102920.00;1800842;79;21312;-79
2021/10/26 11:34:35;;;;;;;10.13;4.85;;;;;;;11.85;54.45;102916.88;1797142;78;21308;-87
2021/10/26 11:37:11;;;;;;;7.75;3.40;;;;;;;11.89;54.61;102925.13;1801959;79;21293;-86
2021/10/26 11:39:45;;;;;;;6.22;3.30;;;;;;;11.95;54.67;102920.10;1801313;79;21300;-80
2021/10/26 11:42:17;;;;;;;4.92;3.20;;;;;;;11.99;54.70;102919.97;1806176;78;21383;-76
2021/10/26 11:44:50;;;;;;;5.67;3.12;;;;;;;11.98;54.77;102911.86;1807176;79;21146;-83
2021/10/26 11:47:23;;;;;;;4.75;2.90;;;;;;;11.98;54.81;102916.03;1806311;79;21332;-84
2021/10/26 11:49:59;;;;;;;6.20;3.22;;;;;;;12.03;54.84;102915.70;1806780;79;22459;-77
2021/10/26 11:52:38;;;;;;;8.00;3.25;;;;;;;12.07;54.24;102925.34;1802056;78;21339;-85
2021/10/26 11:55:12;;;;;;;6.30;3.77;;;;;;;12.04;53.79;102910.99;1798870;79;21304;-81
2021/10/26 11:57:45;;;;;;;6.97;3.60;;;;;;;11.98;53.83;102911.86;1684903;85;21743;-86
2021/10/26 12:00:24;;;;;;;7.05;3.47;;;;;;;11.91;53.91;102913.76;1687437;85;21345;-79
2021/10/26 12:03:03;;;;;;;11.53;3.45;;;;;;;11.83;54.22;102909.29;1686400;84;21171;-78
2021/10/26 12:05:37;;;;;;;9.90;3.60;;;;;;;11.82;54.33;102898.36;1687197;85;21953;-77
2021/10/26 12:09:04;;;;;;;8.45;4.12;;;;;;;11.81;54.40;102892.47;1685175;85;21204;-91
2021/10/26 12:11:38;;;;;;;7.97;4.47;;;;;;;11.85;54.30;102896.52;1685073;85;21459;-85
2021/10/26 12:14:21;;;;;;;6.17;2.90;;;;;;;11.89;54.28;102902.86;1664510;85;21202;-78
2021/10/26 12:17:10;;;;;;;7.28;3.40;;;;;;;11.89;54.28;102888.07;1773932;79;21853;-79